AirNav  
 
 442 users online  

M41 Holly Springs-Marshall County Airport
Holly Springs, Mississippi, USA

GOING TO HOLLY SPRINGS?


FAA INFORMATION EFFECTIVE 25 MARCH 2021

Location

FAA Identifier: M41
Lat/Long: 34-48-15.7000N 089-31-16.0000W
34-48.261667N 089-31.266667W
34.8043611,-89.5211111
(estimated)
Elevation: 551.3 ft. / 168.0 m (surveyed)
Variation: 02W (2020)
From city: 4 miles W of HOLLY SPRINGS, MS
Time zone: UTC -5 (UTC -6 during Standard Time)
Zip code: 38635

Airport Operations

Airport use: Open to the public
Activation date: 09/1973
Control tower: no
ARTCC: MEMPHIS CENTER
FSS: GREENWOOD FLIGHT SERVICE STATION
NOTAMs facility: GWO (NOTAM-D service available)
Attendance: MON-FRI 0800-1700
Wind indicator: lighted
Segmented circle: yes
Lights: SS-SR
Beacon: white-green (lighted land airport)
Operates sunset to sunrise.

Airport Communications

CTAF/UNICOM: 122.8
MEMPHIS APPROACH: 125.8 120.075 [0600-2300]
MEMPHIS DEPARTURE: 124.15 [0600-2300]
WX AWOS-3 at OLV (17 nm NW): 119.925 (662-893-5906)

Nearby radio navigation aids

VOR radial/distance  VOR name  Freq  Var
HLIr326/2.4HOLLY SPRINGS VORTAC112.4003E
MEMr118/26.0MEMPHIS VORTAC117.5001E

Airport Services

Fuel available: 100LL JET-A
FUEL 24 HR CREDIT CARD SVC AVBL.
Parking: tiedowns
Airframe service: MAJOR
Powerplant service: MAJOR
Bottled oxygen: NONE
Bulk oxygen: NONE

Runway Information

Runway 18/36

Dimensions: 3202 x 60 ft. / 976 x 18 m
Surface: asphalt, in excellent condition
Weight bearing capacity: 
Single wheel: 15.0
Runway edge lights: medium intensity
RUNWAY 18  RUNWAY 36
Latitude: 34-48.524833N34-47.997133N
Longitude: 089-31.271980W089-31.261590W
Elevation: 516.7 ft.551.3 ft.
Traffic pattern: leftleft
Runway heading: 181 magnetic, 179 true001 magnetic, 359 true
Markings: nonprecision, in good conditionnonprecision, in good condition
Visual slope indicator: 2-light PAPI on left (2.75 degrees glide path)2-light PAPI on left (3.25 degrees glide path)
Touchdown point: yes, no lightsyes, no lights

Airport Ownership and Management from official FAA records

Ownership: Publicly-owned
Owner: CITY OF HOLLY SPRINGS
520 J. M. ASH DRIVE
HOLLY SPRINGS, MS 38635
Phone 662-252-4652
AND MARSHALL COUNTY.
Manager: ROD CHILDERS
520 J. M. ASH DRIVE, PO BOX 128
HOLLY SPRINGS, MS 38635
Phone (901) 230-3421

Airport Operational Statistics

Aircraft based on the field: 28
Single engine airplanes: 24
Multi engine airplanes: 2
Helicopters: 2
    
Aircraft operations: avg 48/day *
60% transient general aviation
40% local general aviation
<1% military
* for 12-month period ending 15 December 2020

Additional Remarks

FOR CD CTC MEMPHIS APCH AT 901-842-8457.

Instrument Procedures

NOTE: All procedures below are presented as PDF files. If you need a reader for these files, you should download the free Adobe Reader.

NOT FOR NAVIGATION. Please procure official charts for flight.
FAA instrument procedures published for use from 25 March 2021 at 0901Z to 22 April 2021 at 0900z.

 
IAPs - Instrument Approach Procedures
RNAV (GPS) RWY 18   download (230KB)
RNAV (GPS) RWY 36   download (232KB)
NOTE: Special Take-Off Minimums/Departure Procedures apply   download (150KB)

Other nearby airports with instrument procedures:

KOLV - Olive Branch Airport (17 nm NW)
KFYE - Fayette County Airport (25 nm N)
KUOX - University-Oxford Airport (25 nm S)
25M - Ripley Airport (25 nm E)
KMEM - Memphis International Airport (27 nm NW)
 
Loc | Ops | Rwys | IFR | FBO | Links
Com | Nav | Svcs | Stats | Notes
Area around M41 (Holly Springs-Marshall County Airport)
 
Road maps at: MapQuest Bing Google
 
Aerial photo
WARNING: Photo may not be current or correct
Aerial photo of M41 (Holly Springs-Marshall County Airport)
Do you have a better or more recent aerial photo of Holly Springs-Marshall County Airport that you would like to share? If so, please send us your photo.

 
Sectional chart

 
Airport distance calculator
Flying to Holly Springs-Marshall County Airport? Find the distance to fly.

From to M41

Sunrise and sunset
Times for 19-Apr-2021
 Local
(UTC-5)
 Zulu
(UTC)
Morning civil twilight05:5610:56
Sunrise06:2211:22
Sunset19:3200:32
Evening civil twilight19:5800:58

Current date and time
Zulu (UTC)  19-Apr-2021 09:23:41
Local (UTC-5)  19-Apr-2021 04:23:41
 
METAR
KOLV 
17nm NW 
190855Z AUTO 25004KT 10SM CLR 07/06 A3001 RMK A01
KFYE 
25nm N 
190855Z AUTO 00000KT 10SM CLR 07/07 A2999 RMK A01
KUOX 
25nm S 
190855Z AUTO 00000KT 10SM CLR 04/04 A3004 RMK AO2 PWINO
KMEM 
28nm NW 
190854Z 23003KT 10SM CLR 07/05 A3002 RMK AO2 SLP164 T00670050 55000 $
KMEG 
28nm NW 
190850Z RMK AWOS T00580999
KPMU 
32nm SW 
190855Z AUTO 00000KT 10SM CLR 05/05 A3003 RMK AO2
TAF
KMEM 
28nm NW 
190529Z 1906/2012 28004KT P6SM FEW100 FM191700 28007KT P6SM SCT050 FM200000 21003KT P6SM SKC
NOTAMs
Click for the latest NOTAMs
NOTAMs are issued by the DoD/FAA and will open in a separate window not controlled by AirNav.

 

 
 

FBO, Fuel Providers, and Aircraft Ground Support

  
 Business Name 
 
 Contact 
 
 Services / Description 
 
Fuel Prices
 
Comments
  
Marshall County IDA 662-252-3916
no information available

If you are affiliated with Marshall County IDA and would like to show here your services, contact info, web link, logo, and more, click here
100LL Jet A
SS $3.25 $2.85 
 Updated 09-Apr-2021
 
   write
SS=Self service
Update Fuel Prices
 

Would you like to see your business listed on this page?

 If your business provides an interesting product or service to pilots, flight crews, aircraft, or users of the Holly Springs-Marshall County Airport, you should consider listing it here.  To start the listing process, click on the button below
 
Add a business
 

Other Pages about Holly Springs-Marshall County Airport

Update a link
 
Copyright © AirNav, LLC. All rights reserved. Privacy Policy  Contact